sensor_id;sensor_type;location;lat;lon;timestamp;pressure;altitude;pressure_sealevel;temperature;humidity
57572;BME280;44459;43.522;24.470;2023-04-04T00:00:07;99186.38;;;7.06;100.00
57572;BME280;44459;43.522;24.470;2023-04-04T00:02:33;99182.84;;;6.98;100.00
57572;BME280;44459;43.522;24.470;2023-04-04T00:04:58;99179.28;;;6.87;100.00
57572;BME280;44459;43.522;24.470;2023-04-04T00:07:24;99162.69;;;6.79;100.00
57572;BME280;44459;43.522;24.470;2023-04-04T00:09:49;99160.94;;;6.80;100.00
57572;BME280;44459;43.522;24.470;2023-04-04T00:12:15;99153.88;;;6.71;100.00
57572;BME280;44459;43.522;24.470;2023-04-04T00:14:40;99139.03;;;6.70;100.00
57572;BME280;44459;43.522;24.470;2023-04-04T00:17:06;99146.03;;;6.71;100.00
57572;BME280;44459;43.522;24.470;2023-04-04T00:19:31;99141.66;;;6.69;100.00
57572;BME280;44459;43.522;24.470;2023-04-04T00:21:57;99143.38;;;6.64;100.00
57572;BME280;44459;43.522;24.470;2023-04-04T00:24:22;99144.25;;;6.63;100.00
57572;BME280;44459;43.522;24.470;2023-04-04T00:26:48;99140.72;;;6.61;100.00
57572;BME280;44459;43.522;24.470;2023-04-04T00:29:14;99139.88;;;6.58;100.00
57572;BME280;44459;43.522;24.470;2023-04-04T00:31:40;99140.69;;;6.48;100.00
57572;BME280;44459;43.522;24.470;2023-04-04T00:34:05;99134.56;;;6.48;100.00
57572;BME280;44459;43.522;24.470;2023-04-04T00:36:31;99128.44;;;6.46;100.00
57572;BME280;44459;43.522;24.470;2023-04-04T00:38:56;99134.56;;;6.45;100.00
57572;BME280;44459;43.522;24.470;2023-04-04T00:41:22;99126.66;;;6.40;100.00
57572;BME280;44459;43.522;24.470;2023-04-04T00:43:48;99118.81;;;6.42;100.00
57572;BME280;44459;43.522;24.470;2023-04-04T00:46:14;99130.16;;;6.38;100.00
57572;BME280;44459;43.522;24.470;2023-04-04T00:48:42;99105.66;;;6.33;100.00
57572;BME280;44459;43.522;24.470;2023-04-04T00:51:07;99126.63;;;6.36;100.00
57572;BME280;44459;43.522;24.470;2023-04-04T00:53:33;99114.38;;;6.29;100.00
57572;BME280;44459;43.522;24.470;2023-04-04T00:55:59;99118.78;;;6.31;100.00
57572;BME280;44459;43.522;24.470;2023-04-04T00:58:24;99110.03;;;6.31;100.00
57572;BME280;44459;43.522;24.470;2023-04-04T01:00:51;99113.50;;;6.28;100.00
57572;BME280;44459;43.522;24.470;2023-04-04T01:03:17;99103.88;;;6.23;100.00
57572;BME280;44459;43.522;24.470;2023-04-04T01:05:43;99123.06;;;6.20;100.00
57572;BME280;44459;43.522;24.470;2023-04-04T01:08:09;99101.22;;;6.20;100.00
57572;BME280;44459;43.522;24.470;2023-04-04T01:10:35;99094.25;;;6.23;100.00
57572;BME280;44459;43.522;24.470;2023-04-04T01:13:01;99096.84;;;6.19;100.00
57572;BME280;44459;43.522;24.470;2023-04-04T01:15:27;99107.38;;;6.29;100.00
57572;BME280;44459;43.522;24.470;2023-04-04T01:17:56;99109.13;;;6.21;100.00
57572;BME280;44459;43.522;24.470;2023-04-04T01:20:24;99108.22;;;6.19;100.00
57572;BME280;44459;43.522;24.470;2023-04-04T01:22:51;99096.84;;;6.14;100.00
57572;BME280;44459;43.522;24.470;2023-04-04T01:25:23;99096.84;;;6.16;100.00
57572;BME280;44459;43.522;24.470;2023-04-04T01:27:50;99094.19;;;6.06;100.00
57572;BME280;44459;43.522;24.470;2023-04-04T01:30:16;99095.91;;;6.00;100.00
57572;BME280;44459;43.522;24.470;2023-04-04T01:32:56;99108.94;;;5.94;100.00
57572;BME280;44459;43.522;24.470;2023-04-04T01:40:37;99096.56;;;5.76;100.00
57572;BME280;44459;43.522;24.470;2023-04-04T01:43:03;99103.50;;;5.73;100.00
57572;BME280;44459;43.522;24.470;2023-04-04T01:45:28;99107.91;;;5.75;100.00
57572;BME280;44459;43.522;24.470;2023-04-04T01:47:54;99099.19;;;5.75;100.00
57572;BME280;44459;43.522;24.470;2023-04-04T01:50:21;99100.03;;;5.72;100.00
57572;BME280;44459;43.522;24.470;2023-04-04T01:52:47;99088.63;;;5.64;100.00
57572;BME280;44459;43.522;24.470;2023-04-04T01:55:14;99120.00;;;5.55;100.00
57572;BME280;44459;43.522;24.470;2023-04-04T01:57:39;99088.50;;;5.46;100.00
57572;BME280;44459;43.522;24.470;2023-04-04T02:00:06;99084.97;;;5.42;100.00
57572;BME280;44459;43.522;24.470;2023-04-04T02:02:32;99068.34;;;5.36;100.00
57572;BME280;44459;43.522;24.470;2023-04-04T02:04:58;99087.50;;;5.32;100.00
57572;BME280;44459;43.522;24.470;2023-04-04T02:07:23;99078.72;;;5.24;100.00
57572;BME280;44459;43.522;24.470;2023-04-04T02:09:49;99066.47;;;5.20;100.00
57572;BME280;44459;43.522;24.470;2023-04-04T02:12:14;99071.69;;;5.17;100.00
57572;BME280;44459;43.522;24.470;2023-04-04T02:14:39;99064.66;;;5.10;100.00
57572;BME280;44459;43.522;24.470;2023-04-04T02:17:05;99066.38;;;5.11;100.00
57572;BME280;44459;43.522;24.470;2023-04-04T02:19:31;99069.00;;;5.11;100.00
57572;BME280;44459;43.522;24.470;2023-04-04T02:21:56;99064.63;;;5.06;100.00
57572;BME280;44459;43.522;24.470;2023-04-04T02:24:22;99061.13;;;5.07;100.00
57572;BME280;44459;43.522;24.470;2023-04-04T02:26:47;99049.78;;;5.02;100.00
57572;BME280;44459;43.522;24.470;2023-04-04T02:29:13;99045.41;;;5.04;100.00
57572;BME280;44459;43.522;24.470;2023-04-04T02:31:38;99055.03;;;5.08;100.00
57572;BME280;44459;43.522;24.470;2023-04-04T02:34:04;99055.88;;;5.04;100.00
57572;BME280;44459;43.522;24.470;2023-04-04T02:36:29;99051.50;;;5.02;100.00
57572;BME280;44459;43.522;24.470;2023-04-04T02:38:55;99050.63;;;5.01;100.00
57572;BME280;44459;43.522;24.470;2023-04-04T02:41:21;99050.59;;;5.00;100.00
57572;BME280;44459;43.522;24.470;2023-04-04T02:43:47;99047.06;;;4.92;100.00
57572;BME280;44459;43.522;24.470;2023-04-04T02:46:12;99042.72;;;4.95;100.00
57572;BME280;44459;43.522;24.470;2023-04-04T02:48:38;99045.38;;;4.98;100.00
57572;BME280;44459;43.522;24.470;2023-04-04T02:51:04;99045.34;;;4.97;100.00
57572;BME280;44459;43.522;24.470;2023-04-04T02:53:29;99046.25;;;4.99;100.00
57572;BME280;44459;43.522;24.470;2023-04-04T02:55:55;99048.84;;;5.00;100.00
57572;BME280;44459;43.522;24.470;2023-04-04T02:58:20;99055.84;;;4.98;100.00
57572;BME280;44459;43.522;24.470;2023-04-04T03:00:53;99052.38;;;4.99;100.00
57572;BME280;44459;43.522;24.470;2023-04-04T03:03:18;99068.88;;;4.97;100.00
57572;BME280;44459;43.522;24.470;2023-04-04T03:05:44;99064.56;;;5.00;100.00
57572;BME280;44459;43.522;24.470;2023-04-04T03:08:09;99083.66;;;4.93;100.00
57572;BME280;44459;43.522;24.470;2023-04-04T03:10:35;99076.69;;;4.92;100.00
57572;BME280;44459;43.522;24.470;2023-04-04T03:13:00;99076.66;;;4.88;100.00
57572;BME280;44459;43.522;24.470;2023-04-04T03:15:26;99071.50;;;4.95;100.00
57572;BME280;44459;43.522;24.470;2023-04-04T03:17:52;99065.31;;;4.87;100.00
57572;BME280;44459;43.522;24.470;2023-04-04T03:20:18;99073.97;;;4.82;100.00
57572;BME280;44459;43.522;24.470;2023-04-04T03:22:43;99066.94;;;4.79;100.00
57572;BME280;44459;43.522;24.470;2023-04-04T03:25:09;99062.59;;;4.75;100.00
57572;BME280;44459;43.522;24.470;2023-04-04T03:27:35;99058.16;;;4.68;100.00
57572;BME280;44459;43.522;24.470;2023-04-04T03:30:00;99062.41;;;4.60;100.00
57572;BME280;44459;43.522;24.470;2023-04-04T03:32:26;99072.00;;;4.63;100.00
57572;BME280;44459;43.522;24.470;2023-04-04T03:34:52;99049.31;;;4.57;100.00
57572;BME280;44459;43.522;24.470;2023-04-04T03:37:17;99053.75;;;4.66;100.00
57572;BME280;44459;43.522;24.470;2023-04-04T03:39:43;99051.97;;;4.60;100.00
57572;BME280;44459;43.522;24.470;2023-04-04T03:42:08;99053.72;;;4.61;100.00
57572;BME280;44459;43.522;24.470;2023-04-04T03:44:34;99056.31;;;4.60;100.00
57572;BME280;44459;43.522;24.470;2023-04-04T03:47:00;99063.31;;;4.65;100.00
57572;BME280;44459;43.522;24.470;2023-04-04T03:49:26;99065.91;;;4.62;100.00
57572;BME280;44459;43.522;24.470;2023-04-04T03:51:51;99063.34;;;4.67;100.00
57572;BME280;44459;43.522;24.470;2023-04-04T03:54:17;99061.56;;;4.61;100.00
57572;BME280;44459;43.522;24.470;2023-04-04T03:56:43;99077.28;;;4.67;100.00
57572;BME280;44459;43.522;24.470;2023-04-04T03:59:09;99064.19;;;4.64;100.00
57572;BME280;44459;43.522;24.470;2023-04-04T04:01:34;99066.81;;;4.66;100.00
57572;BME280;44459;43.522;24.470;2023-04-04T04:04:00;99072.06;;;4.67;100.00
57572;BME280;44459;43.522;24.470;2023-04-04T04:06:25;99070.38;;;4.71;100.00
57572;BME280;44459;43.522;24.470;2023-04-04T04:08:51;99071.25;;;4.71;100.00
57572;BME280;44459;43.522;24.470;2023-04-04T04:11:17;99074.72;;;4.70;100.00
57572;BME280;44459;43.522;24.470;2023-04-04T04:13:42;99076.47;;;4.73;100.00
57572;BME280;44459;43.522;24.470;2023-04-04T04:16:08;99060.75;;;4.70;100.00
57572;BME280;44459;43.522;24.470;2023-04-04T04:18:33;99080.81;;;4.72;100.00
57572;BME280;44459;43.522;24.470;2023-04-04T04:20:59;99081.69;;;4.68;100.00
57572;BME280;44459;43.522;24.470;2023-04-04T04:23:27;99092.94;;;4.64;100.00
57572;BME280;44459;43.522;24.470;2023-04-04T04:25:52;99078.94;;;4.59;100.00
57572;BME280;44459;43.522;24.470;2023-04-04T04:28:18;99074.63;;;4.61;100.00
57572;BME280;44459;43.522;24.470;2023-04-04T04:30:44;99071.13;;;4.62;100.00
57572;BME280;44459;43.522;24.470;2023-04-04T04:33:10;99086.88;;;4.67;100.00
57572;BME280;44459;43.522;24.470;2023-04-04T04:35:36;99099.03;;;4.63;100.00
57572;BME280;44459;43.522;24.470;2023-04-04T04:38:05;99090.28;;;4.60;100.00
57572;BME280;44459;43.522;24.470;2023-04-04T04:40:32;99104.19;;;4.57;100.00
57572;BME280;44459;43.522;24.470;2023-04-04T04:42:59;99099.81;;;4.56;100.00
57572;BME280;44459;43.522;24.470;2023-04-04T04:45:24;99108.56;;;4.58;100.00
57572;BME280;44459;43.522;24.470;2023-04-04T04:47:50;99100.59;;;4.47;100.00
57572;BME280;44459;43.522;24.470;2023-04-04T04:50:16;99096.28;;;4.51;100.00
57572;BME280;44459;43.522;24.470;2023-04-04T04:52:42;99110.19;;;4.50;100.00
57572;BME280;44459;43.522;24.470;2023-04-04T04:55:08;99109.34;;;4.51;100.00
57572;BME280;44459;43.522;24.470;2023-04-04T04:57:34;99111.81;;;4.39;100.00
57572;BME280;44459;43.522;24.470;2023-04-04T05:00:00;99111.00;;;4.44;100.00
57572;BME280;44459;43.522;24.470;2023-04-04T05:02:25;99105.75;;;4.43;100.00
57572;BME280;44459;43.522;24.470;2023-04-04T05:04:51;99111.81;;;4.39;100.00
57572;BME280;44459;43.522;24.470;2023-04-04T05:07:17;99108.31;;;4.37;100.00
57572;BME280;44459;43.522;24.470;2023-04-04T05:09:42;99110.00;;;4.35;100.00
57572;BME280;44459;43.522;24.470;2023-04-04T05:12:08;99102.16;;;4.33;100.00
57572;BME280;44459;43.522;24.470;2023-04-04T05:14:33;99116.13;;;4.34;100.00
57572;BME280;44459;43.522;24.470;2023-04-04T05:16:58;99126.53;;;4.32;100.00
57572;BME280;44459;43.522;24.470;2023-04-04T05:19:24;99135.22;;;4.30;100.00
57572;BME280;44459;43.522;24.470;2023-04-04T05:21:49;99127.28;;;4.24;100.00
57572;BME280;44459;43.522;24.470;2023-04-04T05:24:15;99129.09;;;4.31;100.00
57572;BME280;44459;43.522;24.470;2023-04-04T05:26:41;99126.50;;;4.31;100.00
57572;BME280;44459;43.522;24.470;2023-04-04T05:29:07;99135.25;;;4.33;100.00
57572;BME280;44459;43.522;24.470;2023-04-04T05:31:32;99116.03;;;4.31;100.00
57572;BME280;44459;43.522;24.470;2023-04-04T05:33:58;99134.28;;;4.28;100.00
57572;BME280;44459;43.522;24.470;2023-04-04T05:36:24;99130.91;;;4.35;100.00
57572;BME280;44459;43.522;24.470;2023-04-04T05:38:49;99117.78;;;4.29;100.00
57572;BME280;44459;43.522;24.470;2023-04-04T05:41:15;99120.34;;;4.27;100.00
57572;BME280;44459;43.522;24.470;2023-04-04T05:43:40;99144.75;;;4.28;100.00
57572;BME280;44459;43.522;24.470;2023-04-04T05:46:06;99128.22;;;4.29;100.00
57572;BME280;44459;43.522;24.470;2023-04-04T05:48:31;99122.16;;;4.30;100.00
57572;BME280;44459;43.522;24.470;2023-04-04T05:50:56;99135.25;;;4.33;100.00
57572;BME280;44459;43.522;24.470;2023-04-04T05:53:22;99134.38;;;4.32;100.00
57572;BME280;44459;43.522;24.470;2023-04-04T05:55:51;99135.25;;;4.33;100.00
57572;BME280;44459;43.522;24.470;2023-04-04T05:58:17;99127.38;;;4.31;100.00
57572;BME280;44459;43.522;24.470;2023-04-04T06:00:42;99130.88;;;4.32;100.00
57572;BME280;44459;43.522;24.470;2023-04-04T06:03:08;99123.97;;;4.38;100.00
57572;BME280;44459;43.522;24.470;2023-04-04T06:05:34;99124.06;;;4.43;100.00
57572;BME280;44459;43.522;24.470;2023-04-04T06:07:59;99108.31;;;4.38;100.00
57572;BME280;44459;43.522;24.470;2023-04-04T06:10:25;99119.75;;;4.48;100.00
57572;BME280;44459;43.522;24.470;2023-04-04T06:12:50;99108.56;;;4.60;100.00
57572;BME280;44459;43.522;24.470;2023-04-04T06:15:16;99112.91;;;4.59;100.00
57572;BME280;44459;43.522;24.470;2023-04-04T06:17:41;99099.78;;;4.53;100.00
57572;BME280;44459;43.522;24.470;2023-04-04T06:20:07;99112.88;;;4.54;100.00
57572;BME280;44459;43.522;24.470;2023-04-04T06:22:32;99116.41;;;4.58;100.00
57572;BME280;44459;43.522;24.470;2023-04-04T06:24:59;99115.56;;;4.62;100.00
57572;BME280;44459;43.522;24.470;2023-04-04T06:27:24;99109.56;;;4.72;100.00
57572;BME280;44459;43.522;24.470;2023-04-04T06:29:50;99122.91;;;4.96;100.00
57572;BME280;44459;43.522;24.470;2023-04-04T06:32:15;99115.06;;;4.96;100.00
57572;BME280;44459;43.522;24.470;2023-04-04T06:34:40;99123.06;;;5.12;100.00
57572;BME280;44459;43.522;24.470;2023-04-04T06:37:06;99117.91;;;5.19;100.00
57572;BME280;44459;43.522;24.470;2023-04-04T06:39:31;99117.97;;;5.24;100.00
57572;BME280;44459;43.522;24.470;2023-04-04T06:41:59;99112.81;;;5.33;100.00
57572;BME280;44459;43.522;24.470;2023-04-04T06:44:24;99148.66;;;5.43;100.00
57572;BME280;44459;43.522;24.470;2023-04-04T06:46:50;99132.88;;;5.31;100.00
57572;BME280;44459;43.522;24.470;2023-04-04T06:49:16;99126.81;;;5.39;100.00
57572;BME280;44459;43.522;24.470;2023-04-04T06:51:41;99141.66;;;5.42;100.00
57572;BME280;44459;43.522;24.470;2023-04-04T06:54:07;99141.53;;;5.27;100.00
57572;BME280;44459;43.522;24.470;2023-04-04T06:56:32;99149.31;;;5.21;100.00
57572;BME280;44459;43.522;24.470;2023-04-04T06:58:58;99153.59;;;5.10;100.00
57572;BME280;44459;43.522;24.470;2023-04-04T07:01:23;99166.53;;;5.00;100.00
57572;BME280;44459;43.522;24.470;2023-04-04T07:03:52;99177.94;;;5.05;100.00
57572;BME280;44459;43.522;24.470;2023-04-04T07:06:18;99165.72;;;5.04;100.00
57572;BME280;44459;43.522;24.470;2023-04-04T07:08:44;99167.53;;;5.12;100.00
57572;BME280;44459;43.522;24.470;2023-04-04T07:11:10;99170.97;;;5.07;100.00
57572;BME280;44459;43.522;24.470;2023-04-04T07:13:35;99175.34;;;5.08;100.00
57572;BME280;44459;43.522;24.470;2023-04-04T07:16:01;99187.59;;;5.13;100.00
57572;BME280;44459;43.522;24.470;2023-04-04T07:18:26;99196.16;;;4.98;100.00
57572;BME280;44459;43.522;24.470;2023-04-04T07:20:52;99196.09;;;4.92;100.00
57572;BME280;44459;43.522;24.470;2023-04-04T07:23:17;99203.03;;;4.90;100.00
57572;BME280;44459;43.522;24.470;2023-04-04T07:25:43;99204.72;;;4.86;100.00
57572;BME280;44459;43.522;24.470;2023-04-04T07:28:08;99205.47;;;4.76;100.00
57572;BME280;44459;43.522;24.470;2023-04-04T07:30:34;99202.88;;;4.78;100.00
57572;BME280;44459;43.522;24.470;2023-04-04T07:33:00;99207.16;;;4.71;100.00
57572;BME280;44459;43.522;24.470;2023-04-04T07:35:26;99232.44;;;4.72;100.00
57572;BME280;44459;43.522;24.470;2023-04-04T07:37:51;99233.28;;;4.70;100.00
57572;BME280;44459;43.522;24.470;2023-04-04T07:40:18;99223.63;;;4.64;100.00
57572;BME280;44459;43.522;24.470;2023-04-04T07:42:44;99217.47;;;4.62;100.00
57572;BME280;44459;43.522;24.470;2023-04-04T07:45:11;99219.25;;;4.63;100.00
57572;BME280;44459;43.522;24.470;2023-04-04T07:47:36;99213.13;;;4.63;100.00
57572;BME280;44459;43.522;24.470;2023-04-04T07:50:02;99210.50;;;4.60;100.00
57572;BME280;44459;43.522;24.470;2023-04-04T07:52:28;99211.44;;;4.66;100.00
57572;BME280;44459;43.522;24.470;2023-04-04T07:54:54;99201.91;;;4.68;100.00
57572;BME280;44459;43.522;24.470;2023-04-04T07:57:19;99197.53;;;4.69;100.00
57572;BME280;44459;43.522;24.470;2023-04-04T07:59:45;99207.25;;;4.77;100.00
57572;BME280;44459;43.522;24.470;2023-04-04T08:02:11;99191.66;;;4.85;100.00
57572;BME280;44459;43.522;24.470;2023-04-04T08:04:36;99196.06;;;4.90;100.00
57572;BME280;44459;43.522;24.470;2023-04-04T08:07:02;99199.59;;;4.92;100.00
57572;BME280;44459;43.522;24.470;2023-04-04T08:09:27;99211.81;;;4.96;100.00
57572;BME280;44459;43.522;24.470;2023-04-04T08:11:58;99204.66;;;4.80;100.00
57572;BME280;44459;43.522;24.470;2023-04-04T08:14:24;99211.63;;;4.80;100.00
57572;BME280;44459;43.522;24.470;2023-04-04T08:16:49;99223.00;;;4.83;100.00
57572;BME280;44459;43.522;24.470;2023-04-04T08:19:15;99237.78;;;4.83;100.00
57572;BME280;44459;43.522;24.470;2023-04-04T08:21:41;99222.88;;;4.74;100.00
57572;BME280;44459;43.522;24.470;2023-04-04T08:24:09;99236.94;;;4.82;100.00
57572;BME280;44459;43.522;24.470;2023-04-04T08:26:34;99243.09;;;4.87;100.00
57572;BME280;44459;43.522;24.470;2023-04-04T08:28:59;99257.16;;;4.95;100.00
57572;BME280;44459;43.522;24.470;2023-04-04T08:31:26;99261.41;;;4.87;100.00
57572;BME280;44459;43.522;24.470;2023-04-04T08:33:52;99252.66;;;4.85;100.00
57572;BME280;44459;43.522;24.470;2023-04-04T08:36:17;99255.25;;;4.82;100.00
57572;BME280;44459;43.522;24.470;2023-04-04T08:38:43;99262.25;;;4.85;100.00
57572;BME280;44459;43.522;24.470;2023-04-04T08:41:10;99272.66;;;4.83;100.00
57572;BME280;44459;43.522;24.470;2023-04-04T08:43:37;99268.25;;;4.79;100.00
57572;BME280;44459;43.522;24.470;2023-04-04T08:46:06;99274.13;;;4.63;100.00
57572;BME280;44459;43.522;24.470;2023-04-04T08:48:34;99278.31;;;4.52;100.00
57572;BME280;44459;43.522;24.470;2023-04-04T08:51:02;99280.97;;;4.53;100.00
57572;BME280;44459;43.522;24.470;2023-04-04T08:53:29;99288.78;;;4.52;100.00
57572;BME280;44459;43.522;24.470;2023-04-04T08:55:58;99283.59;;;4.53;100.00
57572;BME280;44459;43.522;24.470;2023-04-04T08:58:24;99289.72;;;4.57;100.00
57572;BME280;44459;43.522;24.470;2023-04-04T09:00:54;99285.34;;;4.54;100.00
57572;BME280;44459;43.522;24.470;2023-04-04T09:03:23;99281.81;;;4.51;100.00
57572;BME280;44459;43.522;24.470;2023-04-04T09:05:51;99280.81;;;4.43;100.00
57572;BME280;44459;43.522;24.470;2023-04-04T09:08:18;99296.53;;;4.46;100.00
57572;BME280;44459;43.522;24.470;2023-04-04T09:10:44;99299.00;;;4.37;100.00
57572;BME280;44459;43.522;24.470;2023-04-04T09:13:10;99293.88;;;4.43;100.00
57572;BME280;44459;43.522;24.470;2023-04-04T09:15:40;99293.91;;;4.46;100.00
57572;BME280;44459;43.522;24.470;2023-04-04T09:18:07;99279.19;;;4.52;100.00
57572;BME280;44459;43.522;24.470;2023-04-04T09:20:40;99293.13;;;4.50;100.00
57572;BME280;44459;43.522;24.470;2023-04-04T09:23:09;99288.00;;;4.57;100.00
57572;BME280;44459;43.522;24.470;2023-04-04T09:25:37;99301.97;;;4.60;100.00
57572;BME280;44459;43.522;24.470;2023-04-04T09:28:04;99297.56;;;4.57;100.00
57572;BME280;44459;43.522;24.470;2023-04-04T09:30:33;99308.91;;;4.59;100.00
57572;BME280;44459;43.522;24.470;2023-04-04T09:33:08;99313.28;;;4.60;100.00
57572;BME280;44459;43.522;24.470;2023-04-04T09:35:38;99308.91;;;4.57;100.00
57572;BME280;44459;43.522;24.470;2023-04-04T09:38:06;99310.59;;;4.54;100.00
57572;BME280;44459;43.522;24.470;2023-04-04T09:40:33;99318.44;;;4.54;100.00
57572;BME280;44459;43.522;24.470;2023-04-04T09:43:00;99324.63;;;4.61;100.00
57572;BME280;44459;43.522;24.470;2023-04-04T09:45:29;99335.94;;;4.58;100.00
57572;BME280;44459;43.522;24.470;2023-04-04T09:47:55;99334.25;;;4.63;100.00
57572;BME280;44459;43.522;24.470;2023-04-04T09:50:22;99343.84;;;4.64;100.00
57572;BME280;44459;43.522;24.470;2023-04-04T09:52:49;99333.44;;;4.67;100.00
57572;BME280;44459;43.522;24.470;2023-04-04T09:55:14;99342.94;;;4.62;100.00
57572;BME280;44459;43.522;24.470;2023-04-04T09:57:41;99349.91;;;4.62;100.00
57572;BME280;44459;43.522;24.470;2023-04-04T10:00:06;99355.16;;;4.63;100.00
57572;BME280;44459;43.522;24.470;2023-04-04T10:02:39;99345.53;;;4.62;100.00
57572;BME280;44459;43.522;24.470;2023-04-04T10:05:11;99361.94;;;4.52;100.00
57572;BME280;44459;43.522;24.470;2023-04-04T10:07:38;99372.53;;;4.60;100.00
57572;BME280;44459;43.522;24.470;2023-04-04T10:10:05;99385.50;;;4.53;100.00
57572;BME280;44459;43.522;24.470;2023-04-04T10:12:30;99393.44;;;4.60;100.00
57572;BME280;44459;43.522;24.470;2023-04-04T10:14:58;99406.63;;;4.67;100.00
57572;BME280;44459;43.522;24.470;2023-04-04T10:17:44;99413.63;;;4.68;100.00
57572;BME280;44459;43.522;24.470;2023-04-04T10:20:12;99421.47;;;4.68;100.00
57572;BME280;44459;43.522;24.470;2023-04-04T10:22:38;99415.25;;;4.62;100.00
57572;BME280;44459;43.522;24.470;2023-04-04T10:25:05;99423.84;;;4.54;100.00
57572;BME280;44459;43.522;24.470;2023-04-04T10:27:32;99428.06;;;4.48;100.00
57572;BME280;44459;43.522;24.470;2023-04-04T10:29:58;99423.72;;;4.48;100.00
57572;BME280;44459;43.522;24.470;2023-04-04T10:32:46;99426.09;;;4.33;100.00
57572;BME280;44459;43.522;24.470;2023-04-04T10:35:14;99435.94;;;4.49;100.00
57572;BME280;44459;43.522;24.470;2023-04-04T10:37:57;99431.66;;;4.53;100.00
57572;BME280;44459;43.522;24.470;2023-04-04T10:40:25;99437.78;;;4.55;100.00
57572;BME280;44459;43.522;24.470;2023-04-04T10:42:52;99447.47;;;4.62;100.00
57572;BME280;44459;43.522;24.470;2023-04-04T10:45:19;99442.00;;;4.48;100.00
57572;BME280;44459;43.522;24.470;2023-04-04T10:47:46;99443.00;;;4.53;100.00
57572;BME280;44459;43.522;24.470;2023-04-04T10:50:12;99433.97;;;4.38;100.00
57572;BME280;44459;43.522;24.470;2023-04-04T10:52:42;99447.03;;;4.38;100.00
57572;BME280;44459;43.522;24.470;2023-04-04T10:55:10;99445.31;;;4.38;100.00
57572;BME280;44459;43.522;24.470;2023-04-04T10:57:39;99450.59;;;4.40;100.00
57572;BME280;44459;43.522;24.470;2023-04-04T11:00:11;99457.50;;;4.38;100.00
57572;BME280;44459;43.522;24.470;2023-04-04T11:02:56;99460.00;;;4.30;100.00
57572;BME280;44459;43.522;24.470;2023-04-04T11:05:35;99460.78;;;4.28;100.00
57572;BME280;44459;43.522;24.470;2023-04-04T11:08:17;99462.47;;;4.24;100.00
57572;BME280;44459;43.522;24.470;2023-04-04T11:10:52;99457.16;;;4.18;100.00
57572;BME280;44459;43.522;24.470;2023-04-04T11:13:31;99469.44;;;4.24;100.00
57572;BME280;44459;43.522;24.470;2023-04-04T11:16:10;99464.34;;;4.30;100.00
57572;BME280;44459;43.522;24.470;2023-04-04T11:21:06;99468.63;;;4.26;100.00
57572;BME280;44459;43.522;24.470;2023-04-04T11:26:16;99450.41;;;4.29;100.00
57572;BME280;44459;43.522;24.470;2023-04-04T11:28:44;99458.13;;;4.25;100.00
57572;BME280;44459;43.522;24.470;2023-04-04T11:42:05;99462.72;;;4.38;100.00
57572;BME280;44459;43.522;24.470;2023-04-04T11:44:39;99461.09;;;4.43;100.00
57572;BME280;44459;43.522;24.470;2023-04-04T11:49:32;99448.97;;;4.46;100.00
57572;BME280;44459;43.522;24.470;2023-04-04T11:52:02;99461.28;;;4.53;100.00
57572;BME280;44459;43.522;24.470;2023-04-04T11:54:28;99450.69;;;4.46;100.00
57572;BME280;44459;43.522;24.470;2023-04-04T11:56:53;99457.81;;;4.54;100.00
57572;BME280;44459;43.522;24.470;2023-04-04T11:59:20;99455.88;;;4.43;100.00
57572;BME280;44459;43.522;24.470;2023-04-04T12:01:46;99460.59;;;4.64;100.00
57572;BME280;44459;43.522;24.470;2023-04-04T12:04:16;99451.91;;;4.65;100.00
57572;BME280;44459;43.522;24.470;2023-04-04T12:06:42;99455.25;;;4.59;100.00
57572;BME280;44459;43.522;24.470;2023-04-04T12:09:09;99460.78;;;4.76;100.00
57572;BME280;44459;43.522;24.470;2023-04-04T12:11:36;99464.22;;;4.72;100.00
57572;BME280;44459;43.522;24.470;2023-04-04T12:14:02;99468.56;;;4.71;100.00
57572;BME280;44459;43.522;24.470;2023-04-04T12:16:28;99460.84;;;4.79;100.00
57572;BME280;44459;43.522;24.470;2023-04-04T12:19:00;99468.69;;;4.80;100.00
57572;BME280;44459;43.522;24.470;2023-04-04T12:21:26;99466.75;;;4.67;100.00
57572;BME280;44459;43.522;24.470;2023-04-04T12:23:51;99477.28;;;4.72;100.00
57572;BME280;44459;43.522;24.470;2023-04-04T12:26:17;99462.41;;;4.69;100.00
57572;BME280;44459;43.522;24.470;2023-04-04T12:28:44;99470.47;;;4.81;100.00
57572;BME280;44459;43.522;24.470;2023-04-04T12:31:11;99468.75;;;4.83;100.00
57572;BME280;44459;43.522;24.470;2023-04-04T12:33:39;99459.25;;;4.90;100.00
57572;BME280;44459;43.522;24.470;2023-04-04T12:36:05;99467.28;;;5.00;100.00
57572;BME280;44459;43.522;24.470;2023-04-04T12:38:32;99473.59;;;5.13;100.00
57572;BME280;44459;43.522;24.470;2023-04-04T12:40:57;99470.81;;;5.02;100.00
57572;BME280;44459;43.522;24.470;2023-04-04T12:43:26;99471.78;;;5.09;100.00
57572;BME280;44459;43.522;24.470;2023-04-04T12:45:55;99481.25;;;4.99;100.00
57572;BME280;44459;43.522;24.470;2023-04-04T12:48:26;99476.06;;;5.02;100.00
57572;BME280;44459;43.522;24.470;2023-04-04T12:50:57;99475.13;;;5.00;100.00
57572;BME280;44459;43.522;24.470;2023-04-04T12:53:27;99477.69;;;4.97;100.00
57572;BME280;44459;43.522;24.470;2023-04-04T12:56:03;99477.59;;;4.91;100.00
57572;BME280;44459;43.522;24.470;2023-04-04T12:58:30;99484.38;;;4.80;100.00
57572;BME280;44459;43.522;24.470;2023-04-04T13:00:58;99483.47;;;4.77;100.00
57572;BME280;44459;43.522;24.470;2023-04-04T13:03:26;99475.63;;;4.77;100.00
57572;BME280;44459;43.522;24.470;2023-04-04T13:05:51;99480.84;;;4.77;100.00
57572;BME280;44459;43.522;24.470;2023-04-04T13:08:17;99477.47;;;4.82;100.00
57572;BME280;44459;43.522;24.470;2023-04-04T13:10:59;99485.53;;;4.96;100.00